Time;durP1;ratioP1;P1;durP2;ratioP2;P2;SDS_P1;SDS_P2;PMS_P1;PMS_P2;Temp;Humidity;BMP_temperature;BMP_pressure;BME280_temperature;BME280_humidity;BME280_pressure;Samples;Min_cycle;Max_cycle;Signal;HPM_P1;HPM_P2
2023/08/12 00:00:12;;;;;;;1.48;0.90;;;19.00;99.90;;;;;;5071867;28;20357;-75
2023/08/12 00:02:41;;;;;;;1.30;0.90;;;19.00;99.90;;;;;;5088884;28;20044;-75
2023/08/12 00:05:08;;;;;;;1.55;1.10;;;18.90;99.90;;;;;;5086785;28;20097;-75
2023/08/12 00:07:34;;;;;;;2.00;1.10;;;18.90;99.90;;;;;;5087193;28;20043;-75
2023/08/12 00:10:03;;;;;;;2.67;1.00;;;18.90;99.90;;;;;;5088051;28;20070;-75
2023/08/12 00:12:29;;;;;;;1.35;0.98;;;18.90;99.90;;;;;;5087644;28;20621;-75
2023/08/12 00:14:54;;;;;;;;;;;18.90;99.90;;;;;;5089825;28;20104;-75
2023/08/12 00:17:20;;;;;;;2.47;0.80;;;18.90;99.90;;;;;;5087443;28;19923;-75
2023/08/12 00:19:46;;;;;;;;;;;18.90;99.90;;;;;;5089199;28;20064;-76
2023/08/12 00:22:12;;;;;;;1.60;0.90;;;18.90;99.90;;;;;;5071203;28;20364;-76
2023/08/12 00:24:39;;;;;;;1.05;0.93;;;18.90;99.90;;;;;;5088088;28;20101;-76
2023/08/12 00:27:06;;;;;;;1.55;0.90;;;18.90;99.90;;;;;;5103869;28;20085;-76
2023/08/12 00:29:32;;;;;;;2.00;1.05;;;18.90;99.90;;;;;;5069849;28;20039;-76
2023/08/12 00:31:58;;;;;;;1.42;0.90;;;18.90;99.90;;;;;;5088945;28;20549;-76
2023/08/12 00:34:24;;;;;;;;;;;18.80;99.90;;;;;;5089436;28;20236;-76
2023/08/12 00:36:49;;;;;;;1.23;0.90;;;18.90;99.90;;;;;;5088969;28;20042;-76
2023/08/12 00:39:15;;;;;;;;;;;18.80;99.90;;;;;;5088256;28;20044;-76
2023/08/12 00:41:41;;;;;;;1.75;0.90;;;18.90;99.90;;;;;;5122370;27;20711;-76
2023/08/12 00:44:06;;;;;;;;;;;18.90;99.90;;;;;;5088853;28;20493;-76
2023/08/12 00:46:33;;;;;;;1.30;0.90;;;18.80;99.90;;;;;;5088446;28;20332;-76
2023/08/12 00:48:59;;;;;;;0.85;0.80;;;18.80;99.90;;;;;;5086330;28;20047;-76
2023/08/12 00:51:25;;;;;;;1.30;0.90;;;18.80;99.90;;;;;;5105785;28;20039;-76
2023/08/12 00:53:51;;;;;;;;;;;18.80;99.90;;;;;;5106690;27;20039;-76
2023/08/12 00:56:17;;;;;;;1.15;0.90;;;18.80;99.90;;;;;;5088971;28;19959;-76
2023/08/12 00:58:43;;;;;;;0.88;0.85;;;18.80;99.90;;;;;;5087689;28;20047;-76
2023/08/12 01:01:09;;;;;;;;;;;18.70;99.90;;;;;;5072127;28;20036;-76
2023/08/12 01:03:35;;;;;;;1.20;1.00;;;18.70;99.90;;;;;;5122708;27;19919;-76
2023/08/12 01:06:01;;;;;;;;;;;18.70;99.90;;;;;;5088833;28;20043;-75
2023/08/12 01:08:31;;;;;;;0.85;0.70;;;18.70;99.90;;;;;;5088476;28;19950;-75
2023/08/12 01:11:20;;;;;;;1.30;0.93;;;18.70;99.90;;;;;;5088762;28;20160;-76
2023/08/12 01:14:14;;;;;;;1.00;0.88;;;18.70;99.90;;;;;;5088404;28;20120;-76
2023/08/12 01:16:43;;;;;;;2.17;0.80;;;18.70;99.90;;;;;;5085799;28;20111;-76
2023/08/12 01:19:12;;;;;;;2.65;0.90;;;18.60;99.90;;;;;;5088521;28;20044;-76
2023/08/12 01:21:43;;;;;;;0.70;0.70;;;18.70;99.90;;;;;;5086972;28;20032;-75
2023/08/12 01:24:09;;;;;;;1.83;1.00;;;18.60;99.90;;;;;;5088288;28;20032;-76
2023/08/12 01:26:34;;;;;;;;;;;18.60;99.90;;;;;;5088525;28;20445;-76
2023/08/12 01:29:00;;;;;;;0.85;0.68;;;18.50;99.90;;;;;;5088329;28;19943;-76
2023/08/12 01:31:32;;;;;;;;;;;18.60;99.90;;;;;;5105451;28;21393;-76
2023/08/12 01:34:27;;;;;;;1.33;0.88;;;18.60;99.90;;;;;;5088171;28;19916;-76
2023/08/12 01:36:56;;;;;;;1.58;1.05;;;18.50;99.90;;;;;;5104131;28;20043;-76
2023/08/12 01:39:23;;;;;;;1.15;0.95;;;18.50;99.90;;;;;;5068885;28;20047;-76
2023/08/12 01:41:51;;;;;;;1.10;1.00;;;18.40;99.90;;;;;;5088630;28;20044;-76
2023/08/12 01:44:17;;;;;;;1.10;0.90;;;18.40;99.90;;;;;;5088041;28;20470;-76
2023/08/12 01:46:44;;;;;;;1.67;1.00;;;18.50;99.90;;;;;;5087781;28;20032;-76
2023/08/12 01:49:10;;;;;;;1.83;1.15;;;18.40;99.90;;;;;;5088080;28;20044;-76
2023/08/12 01:51:35;;;;;;;;;;;18.40;99.90;;;;;;5105732;28;20035;-76
2023/08/12 01:54:01;;;;;;;1.60;1.00;;;18.40;99.90;;;;;;5087255;28;20548;-76
2023/08/12 01:56:27;;;;;;;;;;;18.40;99.90;;;;;;5088163;28;20039;-76
2023/08/12 01:58:53;;;;;;;1.92;1.17;;;18.40;99.90;;;;;;5121495;28;20061;-76
2023/08/12 02:01:19;;;;;;;;;;;18.40;99.90;;;;;;5088365;28;20111;-76
2023/08/12 02:03:44;;;;;;;1.73;1.00;;;18.40;99.90;;;;;;5087892;28;19986;-76
2023/08/12 02:06:10;;;;;;;;;;;18.40;99.90;;;;;;5105128;28;20441;-76
2023/08/12 02:08:36;;;;;;;1.00;0.90;;;18.30;99.90;;;;;;5087852;28;19920;-76
2023/08/12 02:11:01;;;;;;;;;;;18.30;99.90;;;;;;5092003;28;20146;-76
2023/08/12 02:13:27;;;;;;;1.63;1.00;;;18.30;99.90;;;;;;5091845;28;19920;-76
2023/08/12 02:15:53;;;;;;;;;;;18.30;99.90;;;;;;5125912;27;20062;-76
2023/08/12 02:18:19;;;;;;;1.30;1.00;;;18.30;99.90;;;;;;5091990;28;19920;-76
2023/08/12 02:20:46;;;;;;;;;;;18.20;99.90;;;;;;5091975;28;20525;-76
2023/08/12 02:23:12;;;;;;;1.42;1.00;;;18.30;99.90;;;;;;5074462;28;19951;-76
2023/08/12 02:25:37;;;;;;;;;;;18.30;99.90;;;;;;5091364;28;20075;-76
2023/08/12 02:28:04;;;;;;;1.50;1.30;;;18.20;99.90;;;;;;5090956;28;19920;-77
2023/08/12 02:30:30;;;;;;;1.50;1.10;;;18.20;99.90;;;;;;5107042;28;20044;-76
2023/08/12 02:32:56;;;;;;;1.55;1.10;;;18.20;99.90;;;;;;5088881;28;20767;-76
2023/08/12 02:35:21;;;;;;;;;;;18.20;99.90;;;;;;5090366;28;20032;-76
2023/08/12 02:37:50;;;;;;;1.60;1.23;;;18.20;99.90;;;;;;5073092;28;19920;-76
2023/08/12 02:40:16;;;;;;;2.22;1.40;;;18.20;99.90;;;;;;5090615;28;20036;-76
2023/08/12 02:42:41;;;;;;;;;;;18.20;99.90;;;;;;5108414;28;20699;-76
2023/08/12 02:45:07;;;;;;;1.92;1.20;;;18.20;99.90;;;;;;5073970;28;19959;-76
2023/08/12 02:47:33;;;;;;;;;;;18.20;99.90;;;;;;5091570;28;20040;-76
2023/08/12 02:49:59;;;;;;;1.83;1.30;;;18.20;99.90;;;;;;5073931;28;19920;-76
2023/08/12 02:52:24;;;;;;;;;;;18.20;99.90;;;;;;5108316;28;20048;-76
2023/08/12 02:54:50;;;;;;;1.55;1.10;;;18.20;99.90;;;;;;5073901;28;19924;-76
2023/08/12 02:57:15;;;;;;;;;;;18.30;99.90;;;;;;5091322;28;20036;-74
2023/08/12 02:59:41;;;;;;;1.25;1.10;;;18.20;99.90;;;;;;5091032;28;19916;-75
2023/08/12 03:02:07;;;;;;;;;;;18.20;99.90;;;;;;5108103;28;20043;-75
2023/08/12 03:04:32;;;;;;;1.63;1.40;;;18.20;99.90;;;;;;5090525;28;19924;-75
2023/08/12 03:06:58;;;;;;;;;;;18.20;99.90;;;;;;5091404;28;20128;-75
2023/08/12 03:09:23;;;;;;;1.90;1.13;;;18.20;99.90;;;;;;5090400;28;19970;-75
2023/08/12 03:11:49;;;;;;;1.85;1.50;;;18.20;99.90;;;;;;5090920;28;20372;-75
2023/08/12 03:14:15;;;;;;;;;;;18.30;99.90;;;;;;5090801;28;20494;-75
2023/08/12 03:16:40;;;;;;;2.63;1.60;;;18.20;99.90;;;;;;5107720;28;20306;-75
2023/08/12 03:19:06;;;;;;;2.95;1.60;;;18.20;99.90;;;;;;5090209;28;20036;-75
2023/08/12 03:21:32;;;;;;;;;;;18.20;99.90;;;;;;5072719;28;20036;-75
2023/08/12 03:23:57;;;;;;;2.17;1.50;;;18.10;99.90;;;;;;5086442;28;19923;-75
2023/08/12 03:26:23;;;;;;;;;;;18.10;99.90;;;;;;5072995;28;20036;-75
2023/08/12 03:28:49;;;;;;;1.90;1.63;;;18.10;99.90;;;;;;5090596;28;19920;-75
2023/08/12 03:31:14;;;;;;;;;;;18.10;99.90;;;;;;5090472;28;20402;-75
2023/08/12 03:33:40;;;;;;;1.85;1.42;;;18.10;99.90;;;;;;5090146;28;19920;-75
2023/08/12 03:36:06;;;;;;;;;;;18.10;99.90;;;;;;5090129;28;20120;-75
2023/08/12 03:38:31;;;;;;;2.30;1.50;;;18.10;99.90;;;;;;5089765;28;20260;-75
2023/08/12 03:40:57;;;;;;;;;;;18.20;99.90;;;;;;5072624;28;20051;-75
2023/08/12 03:43:23;;;;;;;2.60;1.70;;;18.20;99.90;;;;;;5090077;28;19949;-75
2023/08/12 03:45:48;;;;;;;;;;;18.30;99.90;;;;;;5088916;28;20133;-75
2023/08/12 03:48:14;;;;;;;2.47;1.90;;;18.30;99.90;;;;;;5087878;28;19916;-75
2023/08/12 03:50:40;;;;;;;;;;;18.40;99.90;;;;;;5072759;28;20038;-75
2023/08/12 03:53:06;;;;;;;2.03;1.67;;;18.30;99.90;;;;;;5086783;28;20006;-75
2023/08/12 03:55:32;;;;;;;;;;;18.30;99.90;;;;;;5089078;28;20506;-75
2023/08/12 03:57:58;;;;;;;3.25;1.60;;;18.40;99.90;;;;;;5088750;28;20378;-75
2023/08/12 04:00:24;;;;;;;2.42;1.60;;;18.40;99.90;;;;;;5087203;28;20434;-75
2023/08/12 04:02:50;;;;;;;;;;;18.50;99.90;;;;;;5088517;28;20055;-75
2023/08/12 04:05:16;;;;;;;1.90;1.35;;;18.50;99.90;;;;;;5089082;28;20282;-75
2023/08/12 04:07:42;;;;;;;6.30;2.00;;;18.50;99.90;;;;;;5103458;28;20047;-75
2023/08/12 04:10:08;;;;;;;;;;;18.40;99.90;;;;;;5073239;28;20040;-75
2023/08/12 04:12:33;;;;;;;2.10;1.67;;;18.60;99.90;;;;;;5105624;28;20291;-75
2023/08/12 04:15:00;;;;;;;;;;;18.50;99.90;;;;;;5087510;28;20043;-75
2023/08/12 04:17:26;;;;;;;2.25;1.70;;;18.50;99.90;;;;;;5089193;28;19963;-76
2023/08/12 04:19:51;;;;;;;;;;;18.50;99.90;;;;;;5056134;28;20568;-75
2023/08/12 04:22:17;;;;;;;2.30;1.73;;;18.60;99.90;;;;;;5085013;28;20420;-76
2023/08/12 04:24:43;;;;;;;;;;;18.60;99.90;;;;;;5086712;28;20047;-75
2023/08/12 04:27:08;;;;;;;2.63;1.92;;;18.50;99.90;;;;;;5086740;28;19927;-76
2023/08/12 04:29:34;;;;;;;;;;;18.70;99.90;;;;;;5088216;28;20072;-76
2023/08/12 04:32:00;;;;;;;2.33;1.88;;;18.60;99.90;;;;;;5085509;28;19978;-76
2023/08/12 04:34:26;;;;;;;;;;;18.70;99.90;;;;;;5100685;28;20093;-76
2023/08/12 04:36:51;;;;;;;2.45;1.70;;;18.60;99.90;;;;;;5088379;28;20010;-76
2023/08/12 04:39:17;;;;;;;;;;;18.70;99.90;;;;;;5103465;28;20043;-76
2023/08/12 04:41:42;;;;;;;2.05;1.65;;;18.80;99.90;;;;;;5077054;28;19939;-76
2023/08/12 04:44:08;;;;;;;;;;;18.80;99.90;;;;;;5089092;28;20126;-76
2023/08/12 04:46:34;;;;;;;2.42;1.90;;;18.80;99.90;;;;;;5072036;28;19993;-76
2023/08/12 04:48:59;;;;;;;;;;;18.80;99.90;;;;;;5088617;28;20386;-76
2023/08/12 04:51:25;;;;;;;2.85;2.13;;;18.80;99.90;;;;;;5123174;27;19999;-76
2023/08/12 04:53:51;;;;;;;;;;;18.80;99.90;;;;;;5089181;28;20047;-76
2023/08/12 04:56:17;;;;;;;3.08;2.40;;;18.70;99.90;;;;;;5088694;28;19935;-75
2023/08/12 04:58:42;;;;;;;;;;;18.70;99.90;;;;;;5088016;28;20503;-76
2023/08/12 05:01:08;;;;;;;2.13;1.70;;;18.80;99.90;;;;;;5085870;28;19963;-75
2023/08/12 05:03:33;;;;;;;;;;;18.70;99.90;;;;;;5104719;28;20489;-75
2023/08/12 05:05:59;;;;;;;1.98;1.73;;;18.70;99.90;;;;;;5071413;28;19968;-75
2023/08/12 05:08:25;;;;;;;;;;;18.80;99.90;;;;;;5088262;28;20055;-75
2023/08/12 05:10:51;;;;;;;2.78;1.75;;;18.90;99.90;;;;;;5088178;28;19920;-75
2023/08/12 05:13:16;;;;;;;;;;;18.90;99.90;;;;;;5104669;28;20648;-76
2023/08/12 05:15:46;;;;;;;2.45;2.00;;;18.90;99.90;;;;;;5070977;28;20014;-75
2023/08/12 05:18:12;;;;;;;2.65;1.90;;;18.90;99.90;;;;;;5066915;28;20028;-75
2023/08/12 05:20:37;;;;;;;;;;;18.90;99.90;;;;;;5066957;28;20509;-75
2023/08/12 05:23:03;;;;;;;2.25;1.80;;;19.00;99.90;;;;;;5115113;27;19920;-75
2023/08/12 05:25:28;;;;;;;;;;;19.00;99.90;;;;;;5070994;28;20048;-75
2023/08/12 05:27:54;;;;;;;2.38;1.80;;;19.10;99.90;;;;;;5086022;28;19916;-75
2023/08/12 05:30:20;;;;;;;;;;;19.20;99.90;;;;;;5105275;28;20058;-75
2023/08/12 05:32:45;;;;;;;2.30;1.70;;;19.20;99.90;;;;;;5087394;28;20286;-75
2023/08/12 05:35:11;;;;;;;;;;;19.30;99.90;;;;;;5070914;28;20040;-75
2023/08/12 05:37:37;;;;;;;1.85;1.60;;;19.40;99.90;;;;;;5087513;28;20406;-75
2023/08/12 05:40:07;;;;;;;;;;;19.50;99.90;;;;;;5088213;28;20048;-75
2023/08/12 05:42:33;;;;;;;2.85;1.90;;;19.50;99.90;;;;;;5087906;28;19916;-75
2023/08/12 05:44:59;;;;;;;2.97;2.13;;;19.60;99.90;;;;;;5089961;28;20044;-75
2023/08/12 05:47:25;;;;;;;;;;;19.70;99.90;;;;;;5092339;28;20043;-75
2023/08/12 05:49:50;;;;;;;2.95;1.75;;;19.70;99.90;;;;;;5091892;28;20010;-75
2023/08/12 05:52:16;;;;;;;;;;;19.80;99.90;;;;;;5092599;28;20036;-75
2023/08/12 05:54:41;;;;;;;3.05;2.05;;;19.70;99.90;;;;;;5091788;28;19923;-74
2023/08/12 05:57:07;;;;;;;;;;;19.80;99.90;;;;;;5091624;28;20044;-74
2023/08/12 05:59:33;;;;;;;3.00;2.25;;;19.70;99.90;;;;;;5091679;28;20197;-75
2023/08/12 06:01:58;;;;;;;3.22;2.40;;;19.80;99.90;;;;;;5092138;28;20095;-75
2023/08/12 06:04:24;;;;;;;;;;;19.90;99.90;;;;;;5088310;28;20550;-75
2023/08/12 06:06:50;;;;;;;2.30;2.10;;;19.90;99.90;;;;;;5093297;28;20007;-75
2023/08/12 06:09:16;;;;;;;3.85;2.35;;;19.90;99.90;;;;;;5089078;28;20436;-74
2023/08/12 06:11:41;;;;;;;;;;;20.00;99.90;;;;;;5092331;28;20154;-75
2023/08/12 06:14:10;;;;;;;2.30;1.70;;;20.00;99.90;;;;;;5084039;28;19920;-75
2023/08/12 06:16:36;;;;;;;1.90;1.70;;;20.10;99.90;;;;;;5087727;28;20044;-75
2023/08/12 06:19:01;;;;;;;1.85;1.40;;;20.10;99.90;;;;;;5073424;28;20089;-74
2023/08/12 06:21:27;;;;;;;;;;;20.20;99.90;;;;;;5107684;28;20070;-74
2023/08/12 06:23:53;;;;;;;2.53;1.98;;;20.20;99.90;;;;;;5091079;28;19959;-74
2023/08/12 06:26:18;;;;;;;;;;;20.20;99.90;;;;;;5090046;28;20047;-74
2023/08/12 06:28:44;;;;;;;2.20;1.73;;;20.20;99.90;;;;;;5088997;28;19927;-74
2023/08/12 06:31:10;;;;;;;3.20;2.08;;;20.20;99.90;;;;;;5089968;28;20036;-75
2023/08/12 06:33:35;;;;;;;;;;;20.20;99.90;;;;;;5105377;28;20042;-74
2023/08/12 06:36:02;;;;;;;2.90;1.98;;;20.20;99.90;;;;;;5089738;28;20320;-74
2023/08/12 06:38:28;;;;;;;2.55;2.13;;;20.30;99.90;;;;;;5089680;28;20040;-74
2023/08/12 06:40:54;;;;;;;2.85;2.10;;;20.30;99.90;;;;;;5086242;28;20059;-75
2023/08/12 06:43:20;;;;;;;2.60;2.03;;;20.20;99.90;;;;;;5086723;28;20048;-76
2023/08/12 06:45:46;;;;;;;2.33;1.92;;;20.20;99.90;;;;;;5070978;28;20067;-76
2023/08/12 06:48:12;;;;;;;3.45;2.10;;;20.20;99.90;;;;;;5108054;28;20078;-76
2023/08/12 06:50:37;;;;;;;1.98;1.65;;;20.20;99.90;;;;;;5088700;28;20032;-75
2023/08/12 06:53:04;;;;;;;2.70;1.90;;;20.30;99.90;;;;;;5081860;28;20032;-76
2023/08/12 06:55:29;;;;;;;2.90;1.60;;;20.20;99.90;;;;;;5090779;28;20144;-76
2023/08/12 06:57:55;;;;;;;2.63;2.00;;;20.20;99.90;;;;;;5103318;27;20471;-75
2023/08/12 07:00:21;;;;;;;2.97;2.30;;;20.20;99.90;;;;;;5086560;28;20054;-76
2023/08/12 07:02:46;;;;;;;2.58;1.95;;;20.20;99.90;;;;;;5106841;27;20032;-76
2023/08/12 07:05:12;;;;;;;2.58;1.90;;;20.10;99.90;;;;;;5089784;28;20040;-76
2023/08/12 07:07:37;;;;;;;2.35;1.80;;;20.20;99.90;;;;;;5089092;28;20536;-75
2023/08/12 07:10:05;;;;;;;2.13;1.60;;;20.30;99.90;;;;;;5087392;28;20091;-75
2023/08/12 07:12:30;;;;;;;2.65;1.40;;;20.20;99.90;;;;;;5070409;28;20130;-75
2023/08/12 07:14:56;;;;;;;2.80;1.90;;;20.30;99.90;;;;;;5089444;28;20131;-75
2023/08/12 07:17:22;;;;;;;;;;;20.30;99.90;;;;;;5089687;28;20162;-75
2023/08/12 07:19:47;;;;;;;2.60;2.05;;;20.30;99.90;;;;;;5089701;28;20375;-75
2023/08/12 07:22:13;;;;;;;2.78;2.22;;;20.30;99.90;;;;;;5089218;28;20135;-75
2023/08/12 07:24:39;;;;;;;;;;;20.40;99.90;;;;;;5085419;28;20044;-75
2023/08/12 07:27:04;;;;;;;2.53;2.00;;;20.40;99.90;;;;;;5072208;28;19931;-75
2023/08/12 07:29:30;;;;;;;2.67;2.20;;;20.40;99.90;;;;;;5087975;28;20055;-75
2023/08/12 07:31:56;;;;;;;3.88;2.30;;;20.50;99.90;;;;;;5106677;28;20040;-75
2023/08/12 07:34:21;;;;;;;3.33;2.40;;;20.50;99.90;;;;;;5084396;28;20051;-75
2023/08/12 07:36:47;;;;;;;3.10;2.40;;;20.50;99.90;;;;;;5088348;28;20040;-75
2023/08/12 07:39:13;;;;;;;2.97;2.20;;;20.60;99.90;;;;;;5086643;28;20816;-74
2023/08/12 07:41:39;;;;;;;5.30;2.70;;;20.60;99.90;;;;;;5083258;28;20093;-75
2023/08/12 07:44:05;;;;;;;3.97;2.60;;;20.70;99.90;;;;;;5070269;28;20040;-75
2023/08/12 07:46:30;;;;;;;3.25;2.13;;;20.60;99.90;;;;;;5070070;28;20052;-75
2023/08/12 07:48:57;;;;;;;3.70;2.72;;;20.60;99.90;;;;;;5088874;28;20047;-75
2023/08/12 07:51:22;;;;;;;4.03;3.20;;;20.60;99.90;;;;;;5079882;28;20043;-75
2023/08/12 07:53:48;;;;;;;3.78;2.60;;;20.70;99.90;;;;;;5089080;28;20044;-76
2023/08/12 07:56:14;;;;;;;4.05;2.72;;;20.60;99.90;;;;;;5089603;28;20090;-75
2023/08/12 07:58:39;;;;;;;3.28;2.40;;;20.60;99.90;;;;;;5088987;28;20032;-75
2023/08/12 08:01:06;;;;;;;3.15;2.35;;;20.60;99.90;;;;;;5106140;28;20036;-75
2023/08/12 08:03:31;;;;;;;2.70;2.10;;;20.60;99.90;;;;;;5072313;28;20066;-76
2023/08/12 08:05:57;;;;;;;4.03;2.47;;;20.60;99.90;;;;;;5089346;28;20072;-76
2023/08/12 08:08:23;;;;;;;3.10;2.33;;;20.60;99.90;;;;;;5088876;28;20089;-77
2023/08/12 08:10:48;;;;;;;2.83;2.22;;;20.70;99.90;;;;;;5089191;28;20044;-76
2023/08/12 08:13:14;;;;;;;3.55;2.78;;;20.70;99.90;;;;;;5089492;28;20046;-76
2023/08/12 08:15:40;;;;;;;3.50;2.70;;;20.60;99.90;;;;;;5106453;28;20044;-76
2023/08/12 08:18:05;;;;;;;;;;;20.60;99.90;;;;;;5089671;28;20444;-76
2023/08/12 08:20:31;;;;;;;2.58;1.90;;;20.60;99.90;;;;;;5123340;27;19916;-76
2023/08/12 08:22:57;;;;;;;2.92;2.13;;;20.70;99.90;;;;;;5089424;28;20066;-76
2023/08/12 08:25:22;;;;;;;3.13;2.53;;;20.70;99.90;;;;;;5089365;28;20040;-76
2023/08/12 08:27:48;;;;;;;2.92;2.50;;;20.70;99.90;;;;;;5089138;28;20112;-76
2023/08/12 08:30:14;;;;;;;3.47;2.47;;;20.80;99.90;;;;;;5089407;28;20138;-76
2023/08/12 08:32:40;;;;;;;3.80;2.28;;;20.80;99.90;;;;;;5088939;28;20483;-76
2023/08/12 08:35:06;;;;;;;2.88;2.35;;;20.80;99.90;;;;;;5088428;28;20103;-76
2023/08/12 08:37:32;;;;;;;2.95;2.35;;;20.80;99.90;;;;;;5088897;28;20487;-76
2023/08/12 08:39:57;;;;;;;2.88;2.38;;;20.80;99.90;;;;;;5088551;28;20054;-76
2023/08/12 08:42:24;;;;;;;3.20;2.50;;;20.90;99.90;;;;;;5088652;28;20043;-76
2023/08/12 08:44:54;;;;;;;3.55;2.17;;;20.80;99.90;;;;;;5088581;28;20043;-76
2023/08/12 08:47:26;;;;;;;3.25;2.50;;;20.90;99.90;;;;;;5088828;28;20133;-76
2023/08/12 08:49:58;;;;;;;4.03;3.10;;;20.90;99.90;;;;;;5088749;28;20047;-76
2023/08/12 08:52:24;;;;;;;4.15;2.95;;;20.80;99.90;;;;;;5087592;28;20036;-76
2023/08/12 08:54:51;;;;;;;4.18;3.20;;;20.80;99.90;;;;;;5087450;28;20036;-76
2023/08/12 08:57:18;;;;;;;5.10;3.42;;;20.80;99.90;;;;;;5070531;28;20471;-77
2023/08/12 08:59:44;;;;;;;4.03;2.83;;;20.80;99.90;;;;;;5088430;28;20036;-77
2023/08/12 09:02:16;;;;;;;3.15;2.80;;;20.70;99.90;;;;;;5088212;28;20047;-77
2023/08/12 09:04:43;;;;;;;3.08;2.60;;;20.70;99.90;;;;;;5088482;28;20076;-77
2023/08/12 09:07:11;;;;;;;4.60;2.83;;;20.70;99.90;;;;;;5088441;28;20047;-78
2023/08/12 09:09:37;;;;;;;4.18;2.85;;;20.70;99.90;;;;;;5088540;28;20491;-78
2023/08/12 09:12:06;;;;;;;3.47;2.53;;;20.60;99.90;;;;;;5088590;28;20508;-77
2023/08/12 09:14:31;;;;;;;2.95;2.38;;;20.70;99.90;;;;;;5088089;28;20517;-77
2023/08/12 09:16:58;;;;;;;3.58;2.60;;;20.60;99.90;;;;;;5088518;28;20036;-77
2023/08/12 09:19:24;;;;;;;2.45;2.25;;;20.60;99.90;;;;;;5104837;28;20440;-78
2023/08/12 09:21:54;;;;;;;2.97;2.15;;;20.60;99.90;;;;;;5072122;28;20085;-77
2023/08/12 09:24:27;;;;;;;4.20;2.53;;;20.60;99.90;;;;;;5071728;28;20047;-77
2023/08/12 09:26:53;;;;;;;2.13;1.85;;;20.70;99.90;;;;;;5105071;28;20115;-77
2023/08/12 09:29:29;;;;;;;3.13;2.40;;;20.60;99.90;;;;;;5087390;28;20046;-77
2023/08/12 09:32:04;;;;;;;2.83;2.20;;;20.60;99.90;;;;;;5103767;28;20064;-77
2023/08/12 09:34:30;;;;;;;3.20;2.17;;;20.60;99.90;;;;;;5068848;28;20124;-77
2023/08/12 09:36:56;;;;;;;3.42;2.55;;;20.60;99.90;;;;;;5088069;28;20076;-77
2023/08/12 09:39:21;;;;;;;3.17;2.25;;;20.70;99.90;;;;;;5087497;28;20370;-77
2023/08/12 09:41:47;;;;;;;3.92;2.55;;;20.50;99.90;;;;;;5087597;28;20040;-77
2023/08/12 09:44:13;;;;;;;;;;;20.70;99.90;;;;;;5105088;28;20046;-77
2023/08/12 09:46:39;;;;;;;3.13;2.72;;;20.70;99.90;;;;;;5102743;28;19998;-78
2023/08/12 09:49:06;;;;;;;5.07;2.90;;;20.50;99.90;;;;;;5086979;28;20086;-78
2023/08/12 09:51:36;;;;;;;5.47;3.55;;;20.60;99.90;;;;;;5085000;28;20044;-77
2023/08/12 09:54:02;;;;;;;3.83;2.60;;;20.60;99.90;;;;;;5090430;28;20043;-77
2023/08/12 09:56:35;;;;;;;3.10;2.60;;;20.70;99.90;;;;;;5089768;28;20093;-77
2023/08/12 09:59:07;;;;;;;3.08;2.78;;;20.50;99.90;;;;;;5066280;28;20055;-77
2023/08/12 10:01:33;;;;;;;4.93;3.40;;;20.80;99.90;;;;;;5087640;28;20036;-77
2023/08/12 10:03:59;;;;;;;3.35;2.80;;;20.80;99.90;;;;;;5083990;28;20044;-77
2023/08/12 10:06:26;;;;;;;3.17;2.60;;;20.60;99.90;;;;;;5087423;28;20532;-76
2023/08/12 10:08:52;;;;;;;3.50;2.67;;;20.60;99.90;;;;;;5071920;28;20059;-76
2023/08/12 10:11:18;;;;;;;3.40;2.67;;;20.80;99.90;;;;;;5102619;28;20054;-77
2023/08/12 10:13:44;;;;;;;4.75;3.50;;;20.70;99.90;;;;;;5087613;28;20080;-77
2023/08/12 10:16:11;;;;;;;3.10;2.80;;;20.40;99.90;;;;;;5087533;28;20390;-77
2023/08/12 10:18:40;;;;;;;2.75;2.30;;;20.30;99.90;;;;;;5119121;27;20040;-77
2023/08/12 10:21:09;;;;;;;3.42;2.15;;;20.60;99.90;;;;;;5086313;28;20032;-77
2023/08/12 10:23:36;;;;;;;2.78;2.25;;;20.60;99.90;;;;;;5088143;28;20101;-77
2023/08/12 10:26:03;;;;;;;2.20;1.92;;;20.40;99.90;;;;;;5088706;28;20055;-78
2023/08/12 10:28:36;;;;;;;2.42;2.00;;;20.30;99.90;;;;;;5122073;28;20410;-77
2023/08/12 10:31:05;;;;;;;2.97;2.35;;;20.50;99.90;;;;;;5089493;28;20039;-78
2023/08/12 10:33:38;;;;;;;2.65;2.20;;;20.60;99.90;;;;;;5124991;27;20035;-77
2023/08/12 10:36:05;;;;;;;2.38;1.98;;;20.30;99.90;;;;;;5117616;27;20036;-78
2023/08/12 10:38:32;;;;;;;3.17;2.20;;;20.50;99.90;;;;;;5074552;28;20800;-79
2023/08/12 10:41:21;;;;;;;2.15;1.75;;;20.50;99.90;;;;;;5092603;28;20036;-78
2023/08/12 10:43:54;;;;;;;2.28;1.90;;;20.60;99.90;;;;;;5068461;28;20047;-79
2023/08/12 10:46:34;;;;;;;2.42;1.83;;;20.40;99.90;;;;;;5090522;28;20474;-79
2023/08/12 10:49:21;;;;;;;2.50;1.80;;;20.00;99.90;;;;;;5102372;28;20050;-80
2023/08/12 10:51:53;;;;;;;;;;;20.10;99.90;;;;;;5119903;27;20497;-79
2023/08/12 10:54:31;;;;;;;1.77;1.30;;;20.30;99.90;;;;;;5107166;28;19939;-79
2023/08/12 10:57:03;;;;;;;1.80;1.00;;;19.70;99.90;;;;;;5071353;28;20068;-78
2023/08/12 10:59:44;;;;;;;1.88;1.17;;;19.70;99.90;;;;;;5075608;28;20036;-79
2023/08/12 11:02:23;;;;;;;1.45;0.95;;;20.10;99.90;;;;;;5102661;28;20036;-79
2023/08/12 11:04:54;;;;;;;1.50;1.10;;;20.00;99.90;;;;;;5124797;27;20115;-80
2023/08/12 11:07:41;;;;;;;1.40;1.00;;;19.80;99.90;;;;;;5125782;27;20471;-80
2023/08/12 11:10:17;;;;;;;1.20;1.02;;;20.10;99.90;;;;;;5086126;28;20044;-80
2023/08/12 11:12:52;;;;;;;2.65;1.20;;;20.30;99.90;;;;;;5087702;28;20047;-80
2023/08/12 11:15:28;;;;;;;0.82;0.80;;;19.90;99.90;;;;;;5091865;28;20390;-81
2023/08/12 11:17:55;;;;;;;1.35;1.02;;;20.30;99.90;;;;;;5091487;28;20483;-81
2023/08/12 11:20:21;;;;;;;1.90;1.17;;;20.50;99.90;;;;;;5073828;28;20118;-81
2023/08/12 11:22:47;;;;;;;1.42;1.00;;;20.20;99.90;;;;;;5094344;28;20040;-82
2023/08/12 11:25:14;;;;;;;1.58;1.15;;;19.90;99.90;;;;;;5095059;28;20475;-82
2023/08/12 11:27:47;;;;;;;1.95;1.42;;;19.90;99.90;;;;;;5093764;28;20089;-81
2023/08/12 11:30:15;;;;;;;2.10;1.30;;;20.10;99.90;;;;;;5094448;28;20036;-81
2023/08/12 11:32:43;;;;;;;1.63;1.20;;;20.60;99.90;;;;;;5090881;28;20044;-81
2023/08/12 11:35:10;;;;;;;2.28;1.10;;;20.30;99.90;;;;;;5074212;28;20051;-82
2023/08/12 11:37:41;;;;;;;1.30;1.13;;;20.40;99.90;;;;;;5075950;28;20407;-81
2023/08/12 11:40:09;;;;;;;1.05;0.95;;;20.20;99.90;;;;;;5089564;28;20078;-82
2023/08/12 11:42:38;;;;;;;0.93;0.90;;;20.20;99.90;;;;;;5068856;28;20036;-81
2023/08/12 11:45:05;;;;;;;1.17;0.95;;;20.80;99.90;;;;;;5109862;28;20554;-81
2023/08/12 11:47:31;;;;;;;1.30;0.80;;;20.70;99.90;;;;;;5095412;28;20028;-81
2023/08/12 11:49:57;;;;;;;0.90;0.80;;;20.20;99.90;;;;;;5080889;28;20054;-82
2023/08/12 11:52:23;;;;;;;1.13;0.82;;;20.00;99.90;;;;;;5066232;28;20416;-84
2023/08/12 11:54:50;;;;;;;1.00;0.70;;;20.10;99.90;;;;;;5078802;28;20098;-80
2023/08/12 11:57:17;;;;;;;1.83;0.75;;;20.30;99.90;;;;;;5075114;28;20444;-82
2023/08/12 11:59:43;;;;;;;1.63;1.00;;;20.10;99.90;;;;;;5058179;28;20735;-81
2023/08/12 12:02:10;;;;;;;3.42;2.00;;;20.00;99.90;;;;;;5090721;28;20040;-79
2023/08/12 12:04:36;;;;;;;4.03;2.15;;;19.20;99.90;;;;;;5090917;28;20051;-79
2023/08/12 12:07:06;;;;;;;;;;;18.80;99.90;;;;;;5074048;28;20071;-79
2023/08/12 12:09:32;;;;;;;2.22;1.65;;;18.30;99.90;;;;;;5126939;27;19930;-81
2023/08/12 12:12:00;;;;;;;3.58;1.90;;;18.60;99.90;;;;;;5075855;28;20036;-80
2023/08/12 12:14:26;;;;;;;3.60;1.92;;;18.60;99.90;;;;;;5089021;28;20075;-80
2023/08/12 12:16:51;;;;;;;;;;;18.20;99.90;;;;;;5089484;28;20153;-79
2023/08/12 12:19:19;;;;;;;3.30;2.10;;;18.40;99.90;;;;;;5070193;28;19942;-80
2023/08/12 12:21:53;;;;;;;5.30;2.10;;;18.00;99.90;;;;;;5085152;28;20391;-79
2023/08/12 12:24:19;;;;;;;4.20;1.98;;;18.00;99.90;;;;;;5115396;27;20115;-78
2023/08/12 12:26:46;;;;;;;5.47;2.25;;;18.50;99.90;;;;;;5084759;28;20390;-76
2023/08/12 12:29:13;;;;;;;4.43;1.80;;;18.10;99.90;;;;;;5099504;27;20054;-78
2023/08/12 12:31:40;;;;;;;3.40;1.80;;;18.40;99.90;;;;;;5082077;28;20044;-79
2023/08/12 12:34:07;;;;;;;3.92;1.65;;;18.40;99.90;;;;;;5070105;28;20119;-79
2023/08/12 12:36:37;;;;;;;5.45;1.92;;;18.30;99.90;;;;;;5088280;28;20052;-79
2023/08/12 12:39:04;;;;;;;4.28;1.80;;;18.20;99.90;;;;;;5085662;28;20386;-79
2023/08/12 12:41:30;;;;;;;3.38;1.50;;;18.50;99.90;;;;;;5086852;28;20039;-78
2023/08/12 12:43:55;;;;;;;4.82;1.88;;;18.30;99.90;;;;;;5088717;28;20036;-78
2023/08/12 12:46:21;;;;;;;;;;;18.60;99.90;;;;;;5088561;28;20043;-78
2023/08/12 12:48:47;;;;;;;4.70;2.22;;;18.70;99.90;;;;;;5088466;28;19920;-77
2023/08/12 12:51:13;;;;;;;;;;;18.70;99.90;;;;;;5089706;28;20036;-77
2023/08/12 12:53:39;;;;;;;4.50;2.00;;;18.70;99.90;;;;;;5123072;27;19934;-77
2023/08/12 12:56:06;;;;;;;3.97;2.00;;;18.70;99.90;;;;;;5122033;27;20131;-78
2023/08/12 12:58:36;;;;;;;3.38;1.70;;;18.80;99.90;;;;;;5087891;28;20477;-78
2023/08/12 13:01:03;;;;;;;4.90;2.00;;;18.80;99.90;;;;;;5087889;28;20039;-78
2023/08/12 13:03:30;;;;;;;2.95;1.65;;;18.90;99.90;;;;;;5070017;28;20052;-78